Accueil
METAR-TAF:

METAR-TAF

Aéroports :

Aéroport de Polokwane/Pietersburg

Pietersburg, Afrique du Sud

latitude: 23-50-43S, longitude: 29-27-31E, altitude: 1242 m

Observation

Le bulletin a été fait il y a 26 minutes, à 14:00 UTC
Vent 6 kt de nord-est
Température 21°C
Humidité 49%
Pression 1026 hPa
Visibilité 10 km ou plus
Quelques nuages à une hauteur de 3000 ft

METAR: FAPP 121400Z 05006KT 9999 FEW030 21/10 Q1026 NOSIG

Heure: 16:26 (14:26 UTC)

Prévision

Le bulletin a été fait il y a 5 heures et 26 minutes, à 09:00 UTC
Prévision valable du 12 à 10 UTC au 12 à 18 UTC
Vent 10 kt de est/nord-est
Visibilité 10 km ou plus
Nuages fragmentés à une hauteur de 2000 ft
Probabilité 30% :
Temporairement
du 12 à 12 UTC au 12 à 15 UTC
Quelques nuages à une hauteur de 3500 ft, Cumulus congestus.

TAF: FAPP 120900Z 1210/1218 07010KT 9999 BKN020 TX20/1213Z TN15/1218Z PROB30 TEMPO 1212/1215 FEW035TCU

Observations et prévisions météorologiques de plus de 4000 aéroports (messages METAR et TAF).

Les stations disponibles sont représentées par des disques jaunes et rouges sur la carte.

Passer la souris dessus pour voir le nom de la station.

Cliquer dessus pour voir les observations et prévisions météorologiques.

Pour changer de carte: cliquez sur les boutons verts avec une croix noire pour zoomer, sur le bouton vert avec un tiret pour effectuer un zoom arrière, ou sur les flèches vertes pour les cartes adjacentes.


METAR-TAF: